createdAt,value
2023-04-13T00:00:44.429Z,97522.00
2023-04-13T00:03:18.870Z,97529.81
2023-04-13T00:05:46.660Z,97523.47
2023-04-13T00:08:13.733Z,97527.72
2023-04-13T00:10:41.876Z,97527.78
2023-04-13T00:13:10.241Z,97526.06
2023-04-13T00:15:41.281Z,97525.22
2023-04-13T00:18:08.960Z,97521.22
2023-04-13T00:20:36.389Z,97525.78
2023-04-13T00:23:03.417Z,97520.38
2023-04-13T00:25:30.756Z,97518.13
2023-04-13T00:27:57.597Z,97520.97
2023-04-13T00:30:24.729Z,97522.44
2023-04-13T00:32:52.094Z,97522.28
2023-04-13T00:35:20.168Z,97529.06
2023-04-13T00:37:49.893Z,97525.81
2023-04-13T00:40:18.063Z,97526.66
2023-04-13T00:42:46.226Z,97528.66
2023-04-13T00:45:13.817Z,97528.28
2023-04-13T00:47:41.959Z,97530.13
2023-04-13T00:50:09.355Z,97533.13
2023-04-13T00:52:38.368Z,97534.41
2023-04-13T00:55:06.371Z,97527.47
2023-04-13T00:57:33.958Z,97527.47
2023-04-13T01:00:10.446Z,97527.38
2023-04-13T01:02:42.450Z,97536.44
2023-04-13T01:05:12.696Z,97526.53
2023-04-13T01:07:47.384Z,97530.06
2023-04-13T01:10:26.837Z,97525.84
2023-04-13T01:13:27.258Z,97526.25
2023-04-13T01:16:12.542Z,97524.56
2023-04-13T01:18:40.445Z,97520.47
2023-04-13T01:21:08.395Z,97518.91
2023-04-13T01:24:05.188Z,97511.66
2023-04-13T01:26:58.522Z,97512.84
2023-04-13T01:29:26.196Z,97512.00
2023-04-13T01:31:54.390Z,97517.22
2023-04-13T01:34:23.314Z,97514.69
2023-04-13T01:36:50.499Z,97508.72
2023-04-13T01:39:20.984Z,97509.59
2023-04-13T01:41:48.035Z,97517.38
2023-04-13T01:44:14.905Z,97515.38
2023-04-13T01:46:43.053Z,97518.50
2023-04-13T01:49:10.343Z,97518.38
2023-04-13T01:51:38.371Z,97516.72
2023-04-13T01:54:12.806Z,97520.09
2023-04-13T01:56:40.266Z,97516.72
2023-04-13T01:59:07.128Z,97515.16
2023-04-13T02:01:34.187Z,97509.75
2023-04-13T02:04:03.110Z,97504.09
2023-04-13T02:06:30.717Z,97507.63
2023-04-13T02:08:57.630Z,97498.56
2023-04-13T02:11:25.526Z,97499.53
2023-04-13T02:13:53.171Z,97506.63
2023-04-13T02:16:20.377Z,97499.44
2023-04-13T02:18:47.347Z,97495.44
2023-04-13T02:21:14.537Z,97501.56
2023-04-13T02:23:41.376Z,97495.59
2023-04-13T02:26:08.928Z,97498.44
2023-04-13T02:28:35.829Z,97495.19
2023-04-13T02:31:03.837Z,97499.88
2023-04-13T02:33:31.848Z,97494.78
2023-04-13T02:35:59.645Z,97502.56
2023-04-13T02:38:28.102Z,97498.88
2023-04-13T02:40:56.076Z,97495.63
2023-04-13T02:43:22.890Z,97500.16
2023-04-13T02:45:50.333Z,97505.28
2023-04-13T02:48:17.176Z,97503.84
2023-04-13T02:50:44.232Z,97506.41
2023-04-13T02:53:11.042Z,97507.28
2023-04-13T02:55:39.077Z,97509.41
2023-04-13T02:58:06.626Z,97521.00
2023-04-13T03:00:33.824Z,97514.53
2023-04-13T03:03:03.481Z,97510.53
2023-04-13T03:05:33.578Z,97513.38
2023-04-13T03:08:00.371Z,97516.34
2023-04-13T03:10:27.429Z,97520.19
2023-04-13T03:12:54.177Z,97511.56
2023-04-13T03:15:21.421Z,97517.63
2023-04-13T03:17:48.290Z,97511.69
2023-04-13T03:20:16.951Z,97517.06
2023-04-13T03:22:45.289Z,97508.88
2023-04-13T03:25:12.727Z,97509.16
2023-04-13T03:27:39.610Z,97507.03
2023-04-13T03:30:07.825Z,97510.41
2023-04-13T03:32:34.789Z,97513.25
2023-04-13T03:35:01.957Z,97514.13
2023-04-13T03:37:32.349Z,97513.69
2023-04-13T03:39:59.438Z,97521.16
2023-04-13T03:42:26.275Z,97520.34
2023-04-13T03:44:53.373Z,97514.41
2023-04-13T03:47:20.457Z,97516.25
2023-04-13T03:49:47.561Z,97520.59
2023-04-13T03:52:14.328Z,97524.72
2023-04-13T03:54:41.541Z,97520.59
2023-04-13T03:57:08.396Z,97529.13
2023-04-13T03:59:35.666Z,97529.53
2023-04-13T04:02:05.355Z,97528.97
2023-04-13T04:04:32.504Z,97530.38
2023-04-13T04:06:59.440Z,97533.94
2023-04-13T04:09:27.520Z,97528.84
2023-04-13T04:11:54.304Z,97519.19
2023-04-13T04:14:22.917Z,97522.72
2023-04-13T04:16:49.718Z,97516.78
2023-04-13T04:19:16.863Z,97529.25
2023-04-13T04:21:47.103Z,97519.47
2023-04-13T04:24:20.710Z,97520.47
2023-04-13T04:26:50.173Z,97530.81
2023-04-13T04:29:17.873Z,97533.66
2023-04-13T04:31:44.749Z,97534.63
2023-04-13T04:34:11.854Z,97531.25
2023-04-13T04:36:41.716Z,97534.75
2023-04-13T04:39:10.123Z,97531.38
2023-04-13T04:41:37.988Z,97530.94
2023-04-13T04:44:08.169Z,97528.97
2023-04-13T04:46:38.654Z,97526.28
2023-04-13T04:49:06.526Z,97534.19
2023-04-13T04:51:34.109Z,97530.22
2023-04-13T04:54:02.301Z,97530.53
2023-04-13T04:56:29.403Z,97534.34
2023-04-13T04:58:56.557Z,97539.56
2023-04-13T05:01:26.546Z,97542.53
2023-04-13T05:03:53.926Z,97542.41
2023-04-13T05:06:20.769Z,97551.59
2023-04-13T05:08:47.879Z,97554.13
2023-04-13T05:11:14.681Z,97557.09
2023-04-13T05:13:41.854Z,97562.63
2023-04-13T05:16:10.716Z,97566.72
2023-04-13T05:18:47.701Z,97562.63
2023-04-13T05:21:15.044Z,97556.25
2023-04-13T05:23:42.453Z,97563.34
2023-04-13T05:26:10.213Z,97552.03
2023-04-13T05:28:37.295Z,97559.22
2023-04-13T05:31:08.746Z,97550.19
2023-04-13T05:33:36.036Z,97554.72
2023-04-13T05:36:03.551Z,97558.81
2023-04-13T05:38:31.729Z,97560.94
2023-04-13T05:40:58.759Z,97555.28
2023-04-13T05:43:26.774Z,97556.97
2023-04-13T05:45:53.646Z,97559.94
2023-04-13T05:48:21.557Z,97557.41
2023-04-13T05:50:48.355Z,97554.97
2023-04-13T05:53:15.696Z,97550.44
2023-04-13T05:55:43.035Z,97552.44
2023-04-13T05:58:11.146Z,97556.56
2023-04-13T06:00:38.866Z,97557.00
2023-04-13T06:03:07.100Z,97561.25
2023-04-13T06:05:35.576Z,97558.44
2023-04-13T06:08:03.028Z,97551.91
2023-04-13T06:10:29.811Z,97548.22
2023-04-13T06:12:56.907Z,97542.84
2023-04-13T06:15:23.963Z,97551.22
2023-04-13T06:17:52.399Z,97545.25
2023-04-13T06:20:20.322Z,97545.97
2023-04-13T06:22:47.817Z,97552.47
2023-04-13T06:25:15.072Z,97551.91
2023-04-13T06:27:43.568Z,97554.88
2023-04-13T06:30:10.886Z,97558.28
2023-04-13T06:32:38.751Z,97550.19
2023-04-13T06:35:06.109Z,97546.06
2023-04-13T06:37:35.699Z,97548.34
2023-04-13T06:40:15.927Z,97543.78
2023-04-13T06:42:43.676Z,97544.91
2023-04-13T06:45:11.264Z,97541.63
2023-04-13T06:47:41.106Z,97547.72
2023-04-13T06:50:09.494Z,97548.00
2023-04-13T06:52:37.334Z,97544.88
2023-04-13T06:55:04.919Z,97549.34
2023-04-13T06:57:32.083Z,97551.47
2023-04-13T06:59:58.851Z,97554.56
2023-04-13T07:02:26.662Z,97554.53
2023-04-13T07:04:53.751Z,97551.94
2023-04-13T07:07:21.082Z,97549.34
2023-04-13T07:09:47.856Z,97554.13
2023-04-13T07:12:14.991Z,97557.22
2023-04-13T07:14:41.851Z,97551.75
2023-04-13T07:17:10.165Z,97554.69
2023-04-13T07:19:39.077Z,97554.09
2023-04-13T07:22:06.147Z,97547.09
2023-04-13T07:24:33.961Z,97547.47
2023-04-13T07:27:01.413Z,97554.66
2023-04-13T07:29:28.262Z,97546.34
2023-04-13T07:32:02.432Z,97548.44
2023-04-13T07:34:29.715Z,97549.06
2023-04-13T07:36:56.776Z,97549.59
2023-04-13T07:39:23.601Z,97554.75
2023-04-13T07:41:51.219Z,97560.00
2023-04-13T07:44:18.037Z,97561.41
2023-04-13T07:46:45.129Z,97553.34
2023-04-13T07:49:11.959Z,97562.16
2023-04-13T07:51:39.010Z,97552.72
2023-04-13T07:54:05.797Z,97560.72
2023-04-13T07:56:32.944Z,97563.66
2023-04-13T07:58:59.956Z,97566.56
2023-04-13T08:01:27.696Z,97563.63
2023-04-13T08:03:54.629Z,97568.19
2023-04-13T08:06:22.252Z,97573.50
2023-04-13T08:08:49.169Z,97569.13
2023-04-13T08:11:16.775Z,97564.66
2023-04-13T08:13:43.709Z,97570.66
2023-04-13T08:16:11.344Z,97574.06
2023-04-13T08:18:38.431Z,97578.13
2023-04-13T08:21:17.676Z,97579.00
2023-04-13T08:23:44.599Z,97579.75
2023-04-13T08:26:18.804Z,97586.69
2023-04-13T08:28:48.494Z,97579.47
2023-04-13T08:31:15.963Z,97584.22
2023-04-13T08:33:43.666Z,97584.06
2023-04-13T08:36:10.834Z,97576.63
2023-04-13T08:38:37.700Z,97580.03
2023-04-13T08:41:04.934Z,97575.13
2023-04-13T08:43:33.409Z,97572.47
2023-04-13T08:46:00.800Z,97578.22
2023-04-13T08:48:30.285Z,97574.13
2023-04-13T08:51:01.699Z,97585.78
2023-04-13T08:53:29.964Z,97577.50
2023-04-13T08:55:58.179Z,97584.78
2023-04-13T08:58:25.031Z,97578.13
2023-04-13T09:00:52.246Z,97586.06
2023-04-13T09:03:23.506Z,97583.34
2023-04-13T09:06:00.233Z,97589.22
2023-04-13T09:08:27.843Z,97595.13
2023-04-13T09:10:57.204Z,97600.38
2023-04-13T09:13:24.059Z,97597.28
2023-04-13T09:15:51.297Z,97599.59
2023-04-13T09:18:18.217Z,97595.47
2023-04-13T09:20:55.730Z,97601.69
2023-04-13T09:23:22.643Z,97601.47
2023-04-13T09:25:50.463Z,97598.53
2023-04-13T09:28:18.442Z,97589.94
2023-04-13T09:30:46.343Z,97594.47
2023-04-13T09:33:13.957Z,97587.94
2023-04-13T09:35:41.632Z,97579.56
2023-04-13T09:38:08.955Z,97568.72
2023-04-13T09:40:41.056Z,97577.63
2023-04-13T09:43:09.685Z,97583.06
2023-04-13T09:45:41.914Z,97586.22
2023-04-13T09:48:21.759Z,97583.22
2023-04-13T09:51:02.062Z,97581.56
2023-04-13T09:53:47.288Z,97580.78
2023-04-13T09:56:14.542Z,97577.41
2023-04-13T09:58:45.727Z,97582.78
2023-04-13T10:01:15.334Z,97579.78
2023-04-13T10:03:42.630Z,97577.88
2023-04-13T10:06:09.880Z,97582.78
2023-04-13T10:08:40.732Z,97583.13
2023-04-13T10:11:10.749Z,97573.97
2023-04-13T10:13:41.526Z,97580.19
2023-04-13T10:16:15.206Z,97577.13
2023-04-13T10:19:12.420Z,97576.63
2023-04-13T10:21:40.728Z,97577.50
2023-04-13T10:24:12.251Z,97580.72
2023-04-13T10:26:41.081Z,97590.88
2023-04-13T10:29:08.509Z,97581.06
2023-04-13T10:31:48.915Z,97584.25
2023-04-13T10:34:32.336Z,97581.59
2023-04-13T10:37:03.871Z,97577.22
2023-04-13T10:39:32.305Z,97580.78
2023-04-13T10:42:18.171Z,97576.88
2023-04-13T10:44:53.035Z,97579.88
2023-04-13T10:47:21.203Z,97576.75
2023-04-13T10:49:48.872Z,97572.78
2023-04-13T10:52:16.321Z,97578.28
2023-04-13T10:54:43.370Z,97570.97
2023-04-13T10:57:11.298Z,97574.31
2023-04-13T10:59:56.341Z,97569.56
2023-04-13T11:02:26.343Z,97569.75
2023-04-13T11:04:53.553Z,97576.03
2023-04-13T11:07:23.400Z,97572.09
2023-04-13T11:09:53.155Z,97576.50
2023-04-13T11:12:20.501Z,97583.00
2023-04-13T11:14:47.836Z,97575.44
2023-04-13T11:17:16.925Z,97586.38
2023-04-13T11:19:49.814Z,97584.69
2023-04-13T11:22:22.726Z,97589.16
2023-04-13T11:24:51.005Z,97588.13
2023-04-13T11:27:23.214Z,97586.84
2023-04-13T11:30:06.881Z,97587.72
2023-04-13T11:32:34.427Z,97595.91
2023-04-13T11:35:15.130Z,97593.78
2023-04-13T11:37:50.923Z,97602.84
2023-04-13T11:40:21.495Z,97601.38
2023-04-13T11:42:49.438Z,97596.69
2023-04-13T11:45:16.482Z,97605.13
2023-04-13T11:47:44.687Z,97608.94
2023-04-13T11:50:14.149Z,97611.91
2023-04-13T11:52:42.697Z,97610.78
2023-04-13T11:55:21.697Z,97611.19
2023-04-13T11:57:51.574Z,97619.31
2023-04-13T12:00:24.722Z,97618.88
2023-04-13T12:03:01.748Z,97624.91
2023-04-13T12:05:31.325Z,97626.16
2023-04-13T12:08:00.258Z,97633.09
2023-04-13T12:10:37.449Z,97635.00
2023-04-13T12:13:20.150Z,97641.44
2023-04-13T12:16:06.212Z,97645.84
2023-04-13T12:18:44.012Z,97659.81
2023-04-13T12:21:17.868Z,97667.75
2023-04-13T12:23:55.177Z,97668.31
2023-04-13T12:28:55.454Z,97679.38
2023-04-13T12:31:22.241Z,97678.44
2023-04-13T12:33:49.386Z,97689.28
2023-04-13T12:36:16.554Z,97685.06
2023-04-13T12:38:43.741Z,97693.44
2023-04-13T12:41:10.980Z,97694.34
2023-04-13T12:43:38.017Z,97692.09
2023-04-13T12:46:04.942Z,97694.84
2023-04-13T12:48:32.084Z,97701.25
2023-04-13T12:50:58.989Z,97696.75
2023-04-13T12:53:26.352Z,97696.00
2023-04-13T12:55:53.325Z,97695.81
2023-04-13T12:58:20.570Z,97698.47
2023-04-13T13:00:47.563Z,97690.09
2023-04-13T13:03:15.304Z,97696.28
2023-04-13T13:05:42.886Z,97702.50
2023-04-13T13:08:10.001Z,97703.78
2023-04-13T13:10:37.362Z,97699.78
2023-04-13T13:13:06.215Z,97705.88
2023-04-13T13:15:33.380Z,97704.69
2023-04-13T13:18:04.549Z,97709.16
2023-04-13T13:20:31.551Z,97706.94
2023-04-13T13:22:58.702Z,97711.75
2023-04-13T13:25:25.560Z,97703.19
2023-04-13T13:30:22.647Z,97707.81
2023-04-13T13:32:49.861Z,97714.28
2023-04-13T13:35:16.798Z,97712.28
2023-04-13T13:37:44.020Z,97719.13
2023-04-13T13:40:13.612Z,97719.28
2023-04-13T13:42:51.313Z,97718.41
2023-04-13T13:45:18.917Z,97718.22
2023-04-13T13:47:53.509Z,97724.13
2023-04-13T13:50:21.757Z,97725.34
2023-04-13T13:53:02.311Z,97724.38
2023-04-13T13:55:29.681Z,97723.22
2023-04-13T13:57:57.202Z,97724.75
2023-04-13T14:00:24.615Z,97732.09
2023-04-13T14:02:52.037Z,97732.47
2023-04-13T14:05:19.032Z,97729.63
2023-04-13T14:07:46.288Z,97736.56
2023-04-13T14:10:13.352Z,97738.09
2023-04-13T14:12:43.946Z,97738.09
2023-04-13T14:15:12.347Z,97742.19
2023-04-13T14:17:39.703Z,97743.94
2023-04-13T14:20:14.075Z,97737.50
2023-04-13T14:22:41.845Z,97737.78
2023-04-13T14:25:11.982Z,97731.00
2023-04-13T14:27:39.192Z,97737.09
2023-04-13T14:30:06.681Z,97737.09
2023-04-13T14:32:33.882Z,97734.03
2023-04-13T14:35:00.823Z,97730.47
2023-04-13T14:37:28.191Z,97730.00
2023-04-13T14:39:55.188Z,97745.13
2023-04-13T14:42:42.848Z,97748.41
2023-04-13T14:45:29.689Z,97744.66
2023-04-13T14:47:56.906Z,97756.59
2023-04-13T14:50:24.311Z,97759.47
2023-04-13T14:52:52.438Z,97751.22
2023-04-13T14:55:19.510Z,97755.16
2023-04-13T14:57:47.174Z,97758.22
2023-04-13T15:00:21.849Z,97765.00
2023-04-13T15:02:52.659Z,97767.22
2023-04-13T15:05:20.394Z,97768.78
2023-04-13T15:07:48.507Z,97769.13
2023-04-13T15:10:16.246Z,97774.22
2023-04-13T15:12:43.553Z,97777.94
2023-04-13T15:15:10.850Z,97778.84
2023-04-13T15:17:38.037Z,97778.84
2023-04-13T15:20:07.503Z,97773.41
2023-04-13T15:22:36.272Z,97780.19
2023-04-13T15:25:03.516Z,97776.63
2023-04-13T15:27:30.993Z,97778.66
2023-04-13T15:29:59.184Z,97777.44
2023-04-13T15:32:26.426Z,97785.41
2023-04-13T15:34:53.786Z,97777.28
2023-04-13T15:37:21.227Z,97786.78
2023-04-13T15:39:47.985Z,97784.06
2023-04-13T15:42:15.679Z,97783.91
2023-04-13T15:44:42.907Z,97785.94
2023-04-13T15:47:09.945Z,97786.78
2023-04-13T15:49:36.712Z,97794.59
2023-04-13T15:52:04.199Z,97792.22
2023-04-13T15:54:31.304Z,97794.59
2023-04-13T15:56:58.459Z,97798.66
2023-04-13T15:59:26.895Z,97797.47
2023-04-13T16:01:54.175Z,97798.13
2023-04-13T16:04:21.459Z,97800.34
2023-04-13T16:07:05.084Z,97793.56
2023-04-13T16:09:36.735Z,97802.19
2023-04-13T16:12:07.772Z,97795.44
2023-04-13T16:14:45.076Z,97795.06
2023-04-13T16:17:14.837Z,97797.75
2023-04-13T16:19:42.633Z,97793.69
2023-04-13T16:22:10.557Z,97787.41
2023-04-13T16:24:37.880Z,97788.06
2023-04-13T16:27:05.064Z,97783.69
2023-04-13T16:29:32.666Z,97793.31
2023-04-13T16:31:59.828Z,97796.66
2023-04-13T16:34:27.929Z,97789.56
2023-04-13T16:36:55.040Z,97797.69
2023-04-13T16:39:22.491Z,97793.78
2023-04-13T16:41:50.212Z,97797.69
2023-04-13T16:44:17.134Z,97798.69
2023-04-13T16:46:44.289Z,97792.06
2023-04-13T16:49:11.386Z,97794.78
2023-04-13T16:51:38.465Z,97800.66
2023-04-13T16:54:06.525Z,97793.72
2023-04-13T16:56:33.682Z,97801.81
2023-04-13T16:59:01.507Z,97794.19
2023-04-13T17:01:29.472Z,97805.34
2023-04-13T17:03:56.693Z,97806.34
2023-04-13T17:06:23.872Z,97804.00
2023-04-13T17:08:50.776Z,97802.44
2023-04-13T17:11:17.936Z,97802.75
2023-04-13T17:13:44.942Z,97803.59
2023-04-13T17:16:12.105Z,97811.88
2023-04-13T17:18:39.021Z,97811.72
2023-04-13T17:21:06.148Z,97820.84
2023-04-13T17:23:32.943Z,97823.38
2023-04-13T17:26:00.119Z,97818.75
2023-04-13T17:28:27.154Z,97830.63
2023-04-13T17:30:54.433Z,97827.22
2023-04-13T17:33:21.396Z,97824.88
2023-04-13T17:35:53.593Z,97832.84
2023-04-13T17:38:20.432Z,97831.81
2023-04-13T17:40:47.578Z,97834.84
2023-04-13T17:43:14.648Z,97833.47
2023-04-13T17:45:42.029Z,97836.81
2023-04-13T17:48:08.919Z,97845.47
2023-04-13T17:50:36.010Z,97846.28
2023-04-13T17:53:04.243Z,97848.84
2023-04-13T17:55:31.558Z,97852.69
2023-04-13T17:57:58.317Z,97852.00
2023-04-13T18:00:27.763Z,97852.31
2023-04-13T18:02:55.163Z,97853.47
2023-04-13T18:05:22.437Z,97854.19
2023-04-13T18:07:49.478Z,97860.22
2023-04-13T18:10:16.709Z,97857.53
2023-04-13T18:12:43.622Z,97852.25
2023-04-13T18:15:10.868Z,97846.84
2023-04-13T18:17:38.184Z,97853.44
2023-04-13T18:20:06.034Z,97857.97
2023-04-13T18:22:32.948Z,97856.47
2023-04-13T18:25:00.325Z,97841.69
2023-04-13T18:27:27.740Z,97843.19
2023-04-13T18:29:55.265Z,97847.03
2023-04-13T18:32:25.117Z,97849.75
2023-04-13T18:34:52.348Z,97854.31
2023-04-13T18:37:19.270Z,97856.78
2023-04-13T18:39:46.538Z,97858.19
2023-04-13T18:42:13.415Z,97862.88
2023-04-13T18:44:40.592Z,97861.91
2023-04-13T18:47:07.385Z,97859.34
2023-04-13T18:49:34.459Z,97862.50
2023-04-13T18:52:01.430Z,97865.94
2023-04-13T18:54:29.425Z,97864.84
2023-04-13T18:56:56.230Z,97869.25
2023-04-13T18:59:23.308Z,97879.38
2023-04-13T19:01:50.215Z,97875.97
2023-04-13T19:04:17.560Z,97877.44
2023-04-13T19:06:44.456Z,97874.88
2023-04-13T19:09:11.596Z,97880.00
2023-04-13T19:11:46.413Z,97885.41
2023-04-13T19:14:13.551Z,97875.91
2023-04-13T19:16:41.590Z,97883.16
2023-04-13T19:19:08.958Z,97882.63
2023-04-13T19:21:35.750Z,97879.75
2023-04-13T19:24:02.992Z,97886.00
2023-04-13T19:26:30.544Z,97882.47
2023-04-13T19:28:57.741Z,97887.47
2023-04-13T19:31:24.597Z,97887.31
2023-04-13T19:33:51.862Z,97882.50
2023-04-13T19:36:18.624Z,97886.91
2023-04-13T19:38:47.072Z,97885.34
2023-04-13T19:41:13.927Z,97885.66
2023-04-13T19:43:41.204Z,97887.53
2023-04-13T19:46:08.036Z,97892.94
2023-04-13T19:48:35.433Z,97891.22
2023-04-13T19:51:02.766Z,97893.91
2023-04-13T19:53:29.868Z,97894.16
2023-04-13T19:55:57.050Z,97893.53
2023-04-13T19:58:24.176Z,97890.97
2023-04-13T20:00:50.928Z,97896.72
2023-04-13T20:03:20.299Z,97889.75
2023-04-13T20:05:48.176Z,97889.06
2023-04-13T20:08:16.498Z,97884.50
2023-04-13T20:10:43.383Z,97883.09
2023-04-13T20:13:10.976Z,97883.94
2023-04-13T20:15:37.934Z,97882.88
2023-04-13T20:18:07.321Z,97882.31
2023-04-13T20:20:35.715Z,97888.28
2023-04-13T20:23:02.873Z,97890.97
2023-04-13T20:25:29.679Z,97889.25
2023-04-13T20:27:56.956Z,97887.25
2023-04-13T20:30:24.067Z,97888.97
2023-04-13T20:32:51.222Z,97888.72
2023-04-13T20:35:18.022Z,97887.88
2023-04-13T20:37:45.170Z,97887.47
2023-04-13T20:40:12.057Z,97890.34
2023-04-13T20:42:45.315Z,97889.72
2023-04-13T20:45:15.123Z,97885.38
2023-04-13T20:47:42.686Z,97889.84
2023-04-13T20:50:10.504Z,97884.38
2023-04-13T20:52:37.644Z,97882.53
2023-04-13T20:55:04.620Z,97881.97
2023-04-13T20:57:31.824Z,97889.06
2023-04-13T20:59:58.626Z,97887.53
2023-04-13T21:02:26.187Z,97878.00
2023-04-13T21:04:54.011Z,97881.59
2023-04-13T21:07:22.296Z,97884.59
2023-04-13T21:09:49.071Z,97875.59
2023-04-13T21:12:17.058Z,97876.78
2023-04-13T21:14:43.815Z,97870.69
2023-04-13T21:17:11.774Z,97870.97
2023-04-13T21:19:38.551Z,97871.38
2023-04-13T21:22:06.111Z,97868.72
2023-04-13T21:24:32.885Z,97868.03
2023-04-13T21:27:00.034Z,97871.25
2023-04-13T21:29:26.898Z,97862.19
2023-04-13T21:31:54.009Z,97863.84
2023-04-13T21:34:22.557Z,97856.91
2023-04-13T21:36:51.638Z,97852.22
2023-04-13T21:39:18.774Z,97844.56
2023-04-13T21:41:45.933Z,97850.97
2023-04-13T21:44:26.490Z,97852.56
2023-04-13T21:46:55.958Z,97852.28
2023-04-13T21:49:22.886Z,97851.28
2023-04-13T21:51:50.049Z,97845.72
2023-04-13T21:54:16.810Z,97848.16
2023-04-13T21:56:43.898Z,97842.78
2023-04-13T21:59:10.688Z,97841.75
2023-04-13T22:01:37.813Z,97846.84
2023-04-13T22:04:04.762Z,97844.31
2023-04-13T22:06:32.691Z,97838.34
2023-04-13T22:08:59.759Z,97839.34
2023-04-13T22:11:27.161Z,97832.56
2023-04-13T22:13:53.935Z,97833.94
2023-04-13T22:16:21.142Z,97828.88
2023-04-13T22:18:48.025Z,97822.34
2023-04-13T22:21:15.396Z,97832.16
2023-04-13T22:23:42.183Z,97822.88
2023-04-13T22:26:09.241Z,97815.97
2023-04-13T22:28:36.025Z,97805.88
2023-04-13T22:31:09.308Z,97809.00
2023-04-13T22:33:36.526Z,97806.13
2023-04-13T22:36:04.624Z,97801.81
2023-04-13T22:38:31.441Z,97796.25
2023-04-13T22:40:58.547Z,97797.50
2023-04-13T22:43:25.379Z,97792.88
2023-04-13T22:45:58.965Z,97786.44
2023-04-13T22:48:26.979Z,97789.75
2023-04-13T22:50:54.176Z,97787.31
2023-04-13T22:53:21.040Z,97781.34
2023-04-13T22:55:48.081Z,97783.91
2023-04-13T22:58:14.829Z,97789.44
2023-04-13T23:00:41.882Z,97790.47
2023-04-13T23:03:08.746Z,97791.44
2023-04-13T23:05:35.949Z,97786.03
2023-04-13T23:08:02.794Z,97788.19
2023-04-13T23:10:31.677Z,97788.19
2023-04-13T23:12:58.569Z,97791.75
2023-04-13T23:15:25.726Z,97789.03
2023-04-13T23:20:40.625Z,97790.75
2023-04-13T23:23:07.378Z,97787.34
2023-04-13T23:25:34.525Z,97790.34
2023-04-13T23:28:01.273Z,97786.09
2023-04-13T23:30:28.410Z,97788.63
2023-04-13T23:32:55.645Z,97794.44
2023-04-13T23:35:22.748Z,97785.78
2023-04-13T23:37:49.518Z,97781.81
2023-04-13T23:40:16.678Z,97773.88
2023-04-13T23:42:43.414Z,97774.31
2023-04-13T23:45:10.918Z,97772.44
2023-04-13T23:47:38.050Z,97765.09
2023-04-13T23:50:06.193Z,97759.53
2023-04-13T23:52:33.137Z,97757.44
2023-04-13T23:55:00.212Z,97752.56
2023-04-13T23:57:27.089Z,97749.78
2023-04-13T23:59:57.369Z,97752.75
